Time;durP1;ratioP1;P1;durP2;ratioP2;P2;SDS_P1;SDS_P2;PMS_P1;PMS_P2;Temp;Humidity;BMP_temperature;BMP_pressure;BME280_temperature;BME280_humidity;BME280_pressure;Samples;Min_cycle;Max_cycle;Signal;HPM_P1;HPM_P2
2024/04/13 00:01:43;;;;;;;46.60;13.80;;;;;;;8.22;100.00;101705.38;5530001;26;20053;-73
2024/04/13 00:04:09;;;;;;;53.00;13.88;;;;;;;8.22;100.00;101700.00;5535512;26;20001;-73
2024/04/13 00:06:40;;;;;;;48.15;13.40;;;;;;;8.23;100.00;101701.69;5503665;26;20402;-72
2024/04/13 00:09:05;;;;;;;50.05;14.52;;;;;;;8.25;100.00;101697.00;5532530;26;19989;-72
2024/04/13 00:11:31;;;;;;;46.17;13.80;;;;;;;8.26;100.00;101709.41;5503061;26;20042;-72
2024/04/13 00:13:56;;;;;;;41.92;13.38;;;;;;;8.28;100.00;101712.78;5534165;26;19994;-72
2024/04/13 00:16:22;;;;;;;46.05;14.43;;;;;;;8.30;100.00;101717.97;5533452;26;19993;-72
2024/04/13 00:18:48;;;;;;;55.25;14.75;;;;;;;8.30;100.00;101712.59;5533393;26;20050;-73
2024/04/13 00:21:14;;;;;;;62.88;15.85;;;;;;;8.11;100.00;101681.50;5475557;26;20002;-73
2024/04/13 00:23:40;;;;;;;61.25;16.05;;;;;;;8.25;100.00;101699.69;5428628;26;20639;-72
2024/04/13 00:26:06;;;;;;;81.78;17.90;;;;;;;8.34;100.00;101705.91;5428445;26;20018;-72
2024/04/13 00:28:33;;;;;;;68.22;17.02;;;;;;;8.26;100.00;101682.59;5459230;26;19991;-73
2024/04/13 00:30:59;;;;;;;70.68;18.45;;;;;;;8.14;100.00;101662.41;5450760;26;20075;-72
2024/04/13 00:33:25;;;;;;;79.03;18.13;;;;;;;8.18;100.00;101667.31;5459509;26;19990;-72
2024/04/13 00:35:50;;;;;;;69.35;17.23;;;;;;;8.25;100.00;101683.59;5459497;26;20006;-72
2024/04/13 00:38:16;;;;;;;52.42;15.38;;;;;;;8.35;100.00;101692.34;5466344;26;20003;-73
2024/04/13 00:40:42;;;;;;;74.28;17.52;;;;;;;8.41;100.00;101693.53;5457164;26;20014;-72
2024/04/13 00:43:11;;;;;;;78.15;18.25;;;;;;;8.41;100.00;101685.50;5483076;26;20002;-72
2024/04/13 00:45:44;;;;;;;71.28;17.65;;;;;;;8.41;100.00;101699.78;5497684;26;20002;-73
2024/04/13 00:48:12;;;;;;;91.88;19.70;;;;;;;8.24;100.00;101655.09;5496918;26;19994;-73
2024/04/13 00:50:40;;;;;;;102.93;19.80;;;;;;;8.31;100.00;101656.13;5498845;26;19998;-74
2024/04/13 00:53:07;;;;;;;94.47;18.80;;;;;;;8.41;100.00;101688.19;5496932;26;20332;-72
2024/04/13 00:55:33;;;;;;;85.78;18.02;;;;;;;8.41;100.00;101686.38;5490815;26;19994;-72
2024/04/13 00:57:59;;;;;;;82.97;19.00;;;;;;;8.41;100.00;101675.63;5467451;26;20006;-73
2024/04/13 01:00:25;;;;;;;119.35;21.25;;;;;;;8.42;100.00;101679.16;5498750;26;20005;-72
2024/04/13 01:02:52;;;;;;;102.68;20.33;;;;;;;8.34;100.00;101652.25;5500504;26;20039;-73
2024/04/13 01:05:20;;;;;;;73.70;18.05;;;;;;;8.45;100.00;101678.81;5468066;26;20002;-72
2024/04/13 01:07:46;;;;;;;93.03;19.73;;;;;;;8.46;100.00;101667.09;5498788;26;20005;-73
2024/04/13 01:10:14;;;;;;;99.93;21.48;;;;;;;8.46;100.00;101661.72;5499954;26;19994;-73
2024/04/13 01:12:43;;;;;;;74.75;19.42;;;;;;;8.47;100.00;101661.53;5498881;26;19997;-72
2024/04/13 01:15:08;;;;;;;88.47;20.10;;;;;;;8.50;100.00;101664.91;5499979;26;19998;-73
2024/04/13 01:17:36;;;;;;;104.93;21.88;;;;;;;8.37;100.00;101635.84;5483650;26;19997;-73
2024/04/13 01:20:01;;;;;;;92.90;21.45;;;;;;;8.52;100.00;101653.03;5498117;26;19998;-72
2024/04/13 01:22:27;;;;;;;88.00;21.15;;;;;;;8.55;100.00;101657.22;5499545;26;20013;-73
2024/04/13 01:24:53;;;;;;;106.30;22.52;;;;;;;8.46;100.00;101643.78;5499388;26;19997;-72
2024/04/13 01:27:18;;;;;;;111.15;22.13;;;;;;;8.56;100.00;101649.00;5501017;26;20009;-73
2024/04/13 01:29:45;;;;;;;95.93;22.35;;;;;;;8.38;100.00;101613.44;5468039;26;20002;-72
2024/04/13 01:32:11;;;;;;;111.47;23.63;;;;;;;8.42;100.00;101617.47;5499166;26;20006;-72
2024/04/13 01:34:36;;;;;;;114.03;23.00;;;;;;;8.52;100.00;101639.59;5497542;26;19998;-72
2024/04/13 01:37:01;;;;;;;116.32;23.90;;;;;;;8.57;100.00;101639.94;5498073;26;20009;-73
2024/04/13 01:39:27;;;;;;;103.63;23.08;;;;;;;8.56;100.00;101632.91;5500618;26;20010;-73
2024/04/13 01:41:54;;;;;;;159.10;26.83;;;;;;;8.54;100.00;101640.25;5469226;26;19997;-73
2024/04/13 01:44:20;;;;;;;152.95;25.50;;;;;;;8.53;100.00;101640.44;5501660;26;20002;-73
2024/04/13 01:47:28;;;;;;;208.82;25.65;;;;;;;8.50;100.00;101635.41;5495763;20;20032;-73
2024/04/13 01:49:53;;;;;;;144.75;23.10;;;;;;;8.48;100.00;101638.28;5440136;21;20804;-72
2024/04/13 01:52:22;;;;;;;142.02;24.05;;;;;;;8.39;100.00;101629.34;5388297;26;20061;-72
2024/04/13 01:54:48;;;;;;;159.30;24.50;;;;;;;8.42;100.00;101620.97;5387677;26;20031;-73
2024/04/13 01:57:15;;;;;;;105.80;22.65;;;;;;;8.41;100.00;101624.69;5385912;26;20008;-72
2024/04/13 01:59:41;;;;;;;120.25;23.55;;;;;;;8.31;100.00;101604.31;5386625;26;20003;-72
2024/04/13 02:02:10;;;;;;;163.93;25.85;;;;;;;8.39;100.00;101618.63;5389960;26;20004;-73
2024/04/13 02:04:35;;;;;;;105.03;23.08;;;;;;;8.40;100.00;101624.81;5389351;26;20542;-73
2024/04/13 02:07:01;;;;;;;123.90;23.30;;;;;;;8.40;100.00;101622.16;5388820;26;19996;-72
2024/04/13 02:09:28;;;;;;;98.70;22.80;;;;;;;8.13;100.00;101586.53;5448289;26;20023;-72
2024/04/13 02:11:54;;;;;;;141.32;25.15;;;;;;;8.41;100.00;101621.13;5388412;26;20000;-72
2024/04/13 02:14:20;;;;;;;144.57;24.67;;;;;;;8.42;100.00;101612.09;5329097;26;20015;-73
2024/04/13 02:16:45;;;;;;;101.70;22.23;;;;;;;8.43;100.00;101606.56;5332940;26;20404;-72
2024/04/13 02:19:12;;;;;;;124.65;25.25;;;;;;;8.21;100.00;101577.66;5277551;27;19994;-73
2024/04/13 02:21:38;;;;;;;93.90;23.52;;;;;;;8.44;100.00;101616.31;5336896;26;20015;-72
2024/04/13 02:24:04;;;;;;;86.13;23.80;;;;;;;8.42;100.00;101596.84;5390244;26;19992;-72
2024/04/13 02:26:30;;;;;;;125.70;27.17;;;;;;;8.18;100.00;101537.81;5388768;26;20024;-72
2024/04/13 02:28:55;;;;;;;100.97;25.90;;;;;;;8.49;100.00;101569.38;5358950;26;20069;-72
2024/04/13 02:31:21;;;;;;;97.75;25.45;;;;;;;8.36;100.00;101546.53;5388900;26;20001;-72
2024/04/13 02:33:46;;;;;;;88.55;24.52;;;;;;;8.32;100.00;101534.47;5389998;26;19999;-73
2024/04/13 02:36:12;;;;;;;71.32;23.10;;;;;;;8.51;100.00;101557.47;5390598;26;20000;-73
2024/04/13 02:38:39;;;;;;;68.13;22.88;;;;;;;8.53;100.00;101555.44;5326987;26;19997;-73
2024/04/13 02:41:05;;;;;;;63.53;22.17;;;;;;;8.56;100.00;101546.22;5311094;26;20044;-72
2024/04/13 02:43:31;;;;;;;69.72;22.92;;;;;;;8.55;100.00;101545.41;5369146;26;20009;-72
2024/04/13 02:46:04;;;;;;;74.22;22.15;;;;;;;8.54;100.00;101542.88;5318539;26;20014;-73
2024/04/13 02:48:31;;;;;;;76.43;22.33;;;;;;;8.53;100.00;101542.03;5330361;26;20076;-72
2024/04/13 02:50:57;;;;;;;101.20;25.80;;;;;;;8.51;100.00;101538.69;5350988;26;20004;-72
2024/04/13 02:53:22;;;;;;;109.85;25.98;;;;;;;8.44;100.00;101533.16;5417365;26;20014;-73
2024/04/13 02:55:48;;;;;;;96.55;26.77;;;;;;;8.49;100.00;101542.53;5416643;26;20001;-73
2024/04/13 02:58:13;;;;;;;99.07;28.50;;;;;;;8.49;100.00;101538.00;5416838;26;19998;-73
2024/04/13 03:00:39;;;;;;;106.43;28.52;;;;;;;8.50;100.00;101531.63;5446536;26;20008;-73
2024/04/13 03:03:04;;;;;;;107.68;28.15;;;;;;;8.52;100.00;101531.47;5415284;26;20039;-72
2024/04/13 03:05:30;;;;;;;107.15;30.55;;;;;;;8.37;100.00;101504.44;5428326;26;20045;-72
2024/04/13 03:07:55;;;;;;;96.13;29.10;;;;;;;8.52;100.00;101523.44;5429228;26;20393;-73
2024/04/13 03:10:21;;;;;;;101.82;29.70;;;;;;;8.52;100.00;101520.75;5429191;26;20037;-72
2024/04/13 03:12:46;;;;;;;88.57;29.02;;;;;;;8.48;100.00;101520.25;5432302;26;20002;-73
2024/04/13 03:15:12;;;;;;;82.30;28.48;;;;;;;8.54;100.00;101522.22;5402611;26;20362;-73
2024/04/13 03:17:38;;;;;;;100.50;30.40;;;;;;;8.56;100.00;101527.44;5368324;26;19996;-73
2024/04/13 03:20:05;;;;;;;114.55;33.35;;;;;;;8.53;100.00;101509.00;5404298;26;20012;-74
2024/04/13 03:22:33;;;;;;;114.43;34.50;;;;;;;8.48;100.00;101504.16;5417600;26;20083;-72
2024/04/13 03:24:58;;;;;;;113.15;33.75;;;;;;;8.54;100.00;101505.31;5447098;26;20001;-73
2024/04/13 03:27:24;;;;;;;101.22;32.35;;;;;;;8.53;100.00;101496.44;5353624;26;20025;-73
2024/04/13 03:29:49;;;;;;;110.05;32.58;;;;;;;8.53;100.00;101506.31;5448753;26;19997;-72
2024/04/13 03:32:15;;;;;;;90.15;28.65;;;;;;;8.45;100.00;101489.25;5359736;26;20015;-74
2024/04/13 03:34:40;;;;;;;83.57;29.23;;;;;;;8.46;100.00;101484.72;5448172;26;20012;-73
2024/04/13 03:37:07;;;;;;;68.05;25.80;;;;;;;8.42;100.00;101478.84;5385824;26;20011;-73
2024/04/13 03:39:33;;;;;;;69.43;25.63;;;;;;;8.38;100.00;101474.81;5351344;26;20043;-73
2024/04/13 03:41:58;;;;;;;71.05;25.83;;;;;;;8.53;100.00;101496.44;5351092;26;20116;-72
2024/04/13 03:44:23;;;;;;;74.82;25.52;;;;;;;8.54;100.00;101489.22;5416962;26;20005;-72
2024/04/13 03:46:49;;;;;;;79.40;26.50;;;;;;;8.55;100.00;101502.47;5417347;26;19993;-74
2024/04/13 03:49:14;;;;;;;72.72;25.58;;;;;;;8.47;100.00;101476.47;5445449;26;20011;-72
2024/04/13 03:51:40;;;;;;;64.15;23.58;;;;;;;8.57;100.00;101488.88;5348747;26;20004;-73
2024/04/13 03:54:05;;;;;;;57.40;21.83;;;;;;;8.51;100.00;101477.00;5442883;26;19997;-72
2024/04/13 03:56:32;;;;;;;54.40;20.23;;;;;;;8.57;100.00;101496.94;5384872;26;20714;-72
2024/04/13 03:58:58;;;;;;;53.10;20.92;;;;;;;8.30;100.00;101450.66;5394220;26;20330;-73
2024/04/13 04:01:24;;;;;;;53.03;20.23;;;;;;;8.50;100.00;101477.16;5426668;26;19998;-73
2024/04/13 04:03:49;;;;;;;58.22;21.55;;;;;;;8.48;100.00;101480.03;5397610;26;19996;-73
2024/04/13 04:06:14;;;;;;;57.47;21.77;;;;;;;8.40;100.00;101475.47;5400713;26;20003;-73
2024/04/13 04:08:40;;;;;;;57.00;21.52;;;;;;;8.55;100.00;101486.38;5399892;26;19995;-73
2024/04/13 04:11:05;;;;;;;51.47;20.65;;;;;;;8.54;100.00;101487.38;5430034;26;20027;-72
2024/04/13 04:13:31;;;;;;;50.17;21.17;;;;;;;8.46;100.00;101465.94;5394765;26;19999;-72
2024/04/13 04:15:56;;;;;;;54.95;21.92;;;;;;;8.53;100.00;101482.19;5423420;26;19991;-72
2024/04/13 04:18:21;;;;;;;45.80;19.75;;;;;;;8.53;100.00;101471.47;5390322;26;20007;-73
2024/04/13 04:20:47;;;;;;;33.53;15.60;;;;;;;8.46;100.00;101452.53;5423380;26;19991;-72
2024/04/13 04:23:13;;;;;;;33.15;15.13;;;;;;;8.44;100.00;101450.03;5391682;26;19996;-72
2024/04/13 04:25:39;;;;;;;40.83;16.27;;;;;;;8.50;100.00;101451.16;5388190;26;20404;-72
2024/04/13 04:28:05;;;;;;;28.00;14.75;;;;;;;8.50;100.00;101450.34;5419901;26;20003;-72
2024/04/13 04:30:31;;;;;;;29.40;14.95;;;;;;;8.49;100.00;101449.50;5418762;26;19991;-72
2024/04/13 04:32:56;;;;;;;31.05;15.10;;;;;;;8.49;100.00;101449.50;5367064;26;20014;-72
2024/04/13 04:35:22;;;;;;;38.83;16.25;;;;;;;8.50;100.00;101450.34;5340911;26;20030;-72
2024/04/13 04:37:48;;;;;;;37.40;17.17;;;;;;;8.28;100.00;101416.97;5307223;26;20005;-72
2024/04/13 04:40:13;;;;;;;41.67;18.85;;;;;;;8.44;100.00;101441.97;5309629;27;20009;-72
2024/04/13 04:42:38;;;;;;;43.80;19.13;;;;;;;8.46;100.00;101444.47;5309600;26;20005;-72
2024/04/13 04:45:14;;;;;;;49.80;20.85;;;;;;;8.37;100.00;101435.56;5404006;26;20001;-72
2024/04/13 04:47:40;;;;;;;55.20;20.75;;;;;;;8.36;100.00;101431.22;5422962;26;19996;-73
2024/04/13 04:50:06;;;;;;;57.17;21.98;;;;;;;8.47;100.00;101443.47;5425128;26;20011;-72
2024/04/13 04:52:31;;;;;;;57.20;22.55;;;;;;;8.49;100.00;101459.41;5423918;26;20002;-72
2024/04/13 04:54:59;;;;;;;57.63;23.08;;;;;;;8.49;100.00;101448.66;5422987;26;20070;-72
2024/04/13 04:57:25;;;;;;;57.95;22.60;;;;;;;8.45;100.00;101438.28;5423409;26;20007;-72
2024/04/13 04:59:50;;;;;;;62.70;23.15;;;;;;;8.50;100.00;101447.66;5424121;26;20046;-72
2024/04/13 05:02:16;;;;;;;65.88;23.55;;;;;;;8.51;100.00;101446.63;5453441;26;19996;-72
2024/04/13 05:04:41;;;;;;;62.53;23.63;;;;;;;8.51;100.00;101452.00;5395138;26;20011;-72
2024/04/13 05:07:07;;;;;;;62.70;23.17;;;;;;;8.50;100.00;101450.34;5394145;26;20007;-72
2024/04/13 05:09:32;;;;;;;66.10;24.02;;;;;;;8.51;100.00;101457.38;5351556;26;20001;-72
2024/04/13 05:11:57;;;;;;;65.85;24.73;;;;;;;8.53;100.00;101458.03;5343770;26;19995;-72
2024/04/13 05:14:23;;;;;;;63.50;24.85;;;;;;;8.53;100.00;101466.94;5409944;26;20005;-72
2024/04/13 05:16:48;;;;;;;58.15;26.17;;;;;;;8.31;100.00;101422.84;5438749;26;20055;-73
2024/04/13 05:19:14;;;;;;;68.65;25.98;;;;;;;8.55;100.00;101456.88;5407019;26;20051;-73
2024/04/13 05:21:39;;;;;;;51.78;23.27;;;;;;;8.54;100.00;101457.03;5401688;26;20005;-72
2024/04/13 05:24:05;;;;;;;66.72;25.35;;;;;;;8.56;100.00;101457.72;5311557;27;20395;-73
2024/04/13 05:26:31;;;;;;;49.13;23.42;;;;;;;8.43;100.00;101434.09;5371842;26;20013;-72
2024/04/13 05:28:57;;;;;;;51.78;21.13;;;;;;;8.36;100.00;101422.34;5345084;26;19998;-73
2024/04/13 05:31:23;;;;;;;54.92;20.48;;;;;;;8.59;100.00;101463.56;5351873;26;19994;-73
2024/04/13 05:33:48;;;;;;;53.50;20.65;;;;;;;8.63;100.00;101450.66;5355213;26;19994;-74
2024/04/13 05:36:14;;;;;;;55.70;21.83;;;;;;;8.58;100.00;101440.44;5352477;26;20008;-73
2024/04/13 05:38:39;;;;;;;54.22;21.42;;;;;;;8.69;100.00;101442.75;5320521;27;20010;-74
2024/04/13 05:41:06;;;;;;;55.08;21.08;;;;;;;8.67;100.00;101425.97;5317986;27;20044;-74
2024/04/13 05:43:32;;;;;;;46.08;18.50;;;;;;;8.57;100.00;101403.03;5317472;27;19998;-77
2024/04/13 05:46:01;;;;;;;55.78;20.40;;;;;;;8.52;100.00;101394.69;5352311;26;19997;-75
2024/04/13 05:48:27;;;;;;;50.70;19.58;;;;;;;8.82;100.00;101439.53;5353499;26;20005;-76
2024/04/13 05:50:57;;;;;;;60.30;21.08;;;;;;;8.84;100.00;101440.22;5318368;26;19994;-75
2024/04/13 05:53:23;;;;;;;54.58;20.33;;;;;;;8.79;100.00;101418.41;5317649;26;20004;-76
2024/04/13 05:55:49;;;;;;;53.72;19.00;;;;;;;8.64;100.00;101401.34;5354649;26;20043;-74
2024/04/13 05:58:15;;;;;;;67.10;20.95;;;;;;;8.95;100.00;101444.38;5461064;26;19991;-75
2024/04/13 06:00:46;;;;;;;52.13;20.08;;;;;;;8.98;100.00;101454.78;5404083;26;20037;-75
2024/04/13 06:03:13;;;;;;;46.65;20.25;;;;;;;8.84;100.00;101421.44;5432951;26;19996;-74
2024/04/13 06:05:40;;;;;;;54.65;20.25;;;;;;;9.07;100.00;101456.41;5373596;26;20003;-74
2024/04/13 06:08:05;;;;;;;47.90;18.20;;;;;;;9.15;100.00;101458.22;5434797;26;20968;-74
2024/04/13 06:10:31;;;;;;;58.33;21.90;;;;;;;8.73;100.00;101394.13;5401804;26;20003;-76
2024/04/13 06:12:56;;;;;;;58.20;21.80;;;;;;;9.19;100.00;101456.88;5401565;26;19991;-76
2024/04/13 06:15:24;;;;;;;54.20;22.23;;;;;;;8.81;100.00;101389.56;5371647;26;20007;-75
2024/04/13 06:17:49;;;;;;;56.88;22.92;;;;;;;9.20;100.00;101450.47;5400063;26;20032;-75
2024/04/13 06:20:15;;;;;;;57.20;22.60;;;;;;;9.22;100.00;101453.84;5398376;26;20002;-75
2024/04/13 06:22:41;;;;;;;51.47;21.65;;;;;;;8.75;100.00;101376.84;5429915;26;19995;-76
2024/04/13 06:25:10;;;;;;;55.92;22.60;;;;;;;9.20;100.00;101450.47;5396957;26;20007;-76
2024/04/13 06:27:41;;;;;;;57.67;21.15;;;;;;;9.29;100.00;101451.28;5377434;26;20007;-77
2024/04/13 06:30:07;;;;;;;57.05;22.70;;;;;;;9.27;100.00;101454.16;5407109;26;20031;-77
2024/04/13 06:32:33;;;;;;;51.72;20.92;;;;;;;9.30;100.00;101458.31;5404500;26;19983;-79
2024/04/13 06:34:59;;;;;;;48.33;21.20;;;;;;;9.36;100.00;101452.25;5401596;26;19996;-76
2024/04/13 06:37:25;;;;;;;49.97;21.58;;;;;;;9.14;100.00;101416.28;5427302;26;20038;-76
2024/04/13 06:39:50;;;;;;;44.63;21.77;;;;;;;9.48;100.00;101461.59;5426130;26;19996;-76
2024/04/13 06:42:15;;;;;;;42.00;20.63;;;;;;;9.49;100.00;101443.63;5362908;26;20010;-76
2024/04/13 06:44:41;;;;;;;43.22;20.83;;;;;;;9.64;100.00;101447.25;5361597;26;20072;-77
2024/04/13 06:47:06;;;;;;;45.25;20.73;;;;;;;9.72;100.00;101451.72;5363747;26;19995;-75
2024/04/13 06:49:32;;;;;;;43.75;20.80;;;;;;;9.36;100.00;101383.25;5387439;26;19996;-75
2024/04/13 06:51:57;;;;;;;44.00;19.98;;;;;;;9.77;100.00;101458.25;5391812;26;19992;-76
2024/04/13 06:54:23;;;;;;;43.90;19.23;;;;;;;9.67;100.00;101444.22;5419921;26;20016;-78
2024/04/13 06:56:48;;;;;;;49.25;20.48;;;;;;;9.74;100.00;101460.47;5390510;26;20000;-75
2024/04/13 06:59:13;;;;;;;41.38;19.38;;;;;;;9.72;100.00;101466.00;5391890;26;20004;-78
2024/04/13 07:01:39;;;;;;;46.28;21.42;;;;;;;9.81;100.00;101459.56;5387833;26;20023;-74
2024/04/13 07:04:05;;;;;;;42.85;20.67;;;;;;;9.82;100.00;101458.53;5382986;26;20042;-75
2024/04/13 07:06:34;;;;;;;43.75;22.00;;;;;;;9.85;100.00;101458.19;5383928;26;20334;-74
2024/04/13 07:09:00;;;;;;;47.92;22.38;;;;;;;9.53;100.00;101408.16;5383467;26;20000;-74
2024/04/13 07:11:27;;;;;;;45.00;22.23;;;;;;;9.84;100.00;101456.53;5354108;26;20057;-74
2024/04/13 07:13:53;;;;;;;43.20;22.33;;;;;;;9.84;100.00;101440.41;5351499;26;20004;-74
2024/04/13 07:16:18;;;;;;;49.83;24.33;;;;;;;9.95;100.00;101449.06;5352094;26;20512;-74
2024/04/13 07:18:43;;;;;;;57.95;23.85;;;;;;;9.82;100.00;101420.06;5347083;26;19997;-73
2024/04/13 07:21:11;;;;;;;48.72;22.48;;;;;;;9.68;100.00;101384.06;5348317;26;19993;-74
2024/04/13 07:23:37;;;;;;;57.20;25.08;;;;;;;10.03;100.00;101428.34;5343393;26;19992;-74
2024/04/13 07:26:04;;;;;;;59.45;24.42;;;;;;;10.13;100.00;101417.31;5383016;26;19997;-73
2024/04/13 07:28:31;;;;;;;44.88;20.95;;;;;;;10.03;100.00;101381.75;5382929;26;20036;-73
2024/04/13 07:30:57;;;;;;;56.25;24.08;;;;;;;10.09;100.00;101379.19;5383715;26;20011;-74
2024/04/13 07:33:22;;;;;;;47.67;22.88;;;;;;;10.25;100.00;101417.72;5384856;26;20331;-73
2024/04/13 07:35:48;;;;;;;59.63;22.58;;;;;;;10.18;100.00;101422.97;5380885;26;19996;-74
2024/04/13 07:38:13;;;;;;;59.22;23.42;;;;;;;10.16;100.00;101435.75;5382415;26;20015;-74
2024/04/13 07:40:40;;;;;;;55.50;20.60;;;;;;;10.13;100.00;101441.50;5385638;26;20004;-74
2024/04/13 07:43:06;;;;;;;49.22;21.58;;;;;;;10.10;100.00;101447.28;5442446;26;19996;-73
2024/04/13 07:45:31;;;;;;;62.90;22.45;;;;;;;10.16;100.00;101427.69;5441024;26;20336;-75
2024/04/13 07:47:57;;;;;;;63.70;22.38;;;;;;;10.15;100.00;101433.28;5387227;26;20007;-73
2024/04/13 07:50:23;;;;;;;56.75;20.83;;;;;;;10.28;100.00;101426.28;5418086;26;20462;-73
2024/04/13 07:52:49;;;;;;;55.45;20.48;;;;;;;10.32;100.00;101416.81;5374516;26;19997;-74
2024/04/13 07:55:14;;;;;;;55.95;20.38;;;;;;;10.31;100.00;101407.09;5372953;26;20008;-73
2024/04/13 07:57:40;;;;;;;49.42;19.20;;;;;;;10.46;100.00;101414.34;5338146;26;19997;-74
2024/04/13 08:00:06;;;;;;;58.63;19.58;;;;;;;10.60;100.00;101432.38;5339907;26;20005;-72
2024/04/13 08:02:32;;;;;;;49.33;17.20;;;;;;;10.62;100.00;101424.13;5398187;26;20002;-73
2024/04/13 08:04:57;;;;;;;54.67;18.70;;;;;;;10.67;100.00;101422.56;5396793;26;20002;-73
2024/04/13 08:07:23;;;;;;;48.15;18.10;;;;;;;10.71;100.00;101415.78;5367163;26;20009;-73
2024/04/13 08:09:48;;;;;;;50.13;16.70;;;;;;;10.58;100.00;101404.81;5302967;26;19994;-73
2024/04/13 08:12:14;;;;;;;45.15;15.00;;;;;;;10.77;100.00;101424.97;5368428;26;20002;-73
2024/04/13 08:14:40;;;;;;;52.85;15.98;;;;;;;10.76;100.00;101428.66;5301507;26;20006;-73
2024/04/13 08:17:06;;;;;;;55.08;16.45;;;;;;;10.76;100.00;101429.53;5396122;26;20348;-73
2024/04/13 08:19:32;;;;;;;48.40;16.67;;;;;;;10.84;100.00;101433.97;5365972;26;20068;-73
2024/04/13 08:21:57;;;;;;;37.72;13.68;;;;;;;10.84;100.00;101431.28;5422264;26;20004;-73
2024/04/13 08:24:23;;;;;;;46.78;14.85;;;;;;;10.52;100.00;101378.63;5447002;26;19998;-73
2024/04/13 08:26:48;;;;;;;47.67;14.85;;;;;;;10.81;100.00;101437.88;5356291;26;19995;-72
2024/04/13 08:29:13;;;;;;;48.15;13.82;;;;;;;10.80;100.00;101435.38;5385644;26;20007;-73
2024/04/13 08:31:39;;;;;;;39.13;12.55;;;;;;;10.65;100.00;101397.66;5375056;26;20012;-72
2024/04/13 08:34:05;;;;;;;38.97;12.90;;;;;;;10.96;100.00;101439.72;5398779;26;20016;-72
2024/04/13 08:36:31;;;;;;;40.72;12.45;;;;;;;11.00;100.00;101441.03;5441934;26;20004;-72
2024/04/13 08:38:57;;;;;;;48.42;12.38;;;;;;;10.85;100.00;101410.56;5382265;26;20345;-72
2024/04/13 08:41:28;;;;;;;49.60;12.93;;;;;;;11.05;100.00;101439.44;5413674;26;20000;-72
2024/04/13 08:43:53;;;;;;;40.65;11.15;;;;;;;11.07;100.00;101433.03;5414447;26;20011;-73
2024/04/13 08:46:20;;;;;;;47.80;12.60;;;;;;;11.05;100.00;101441.28;5363351;26;20563;-73
2024/04/13 08:48:47;;;;;;;47.80;11.48;;;;;;;10.95;100.00;101438.88;5337916;26;20472;-73
2024/04/13 08:51:12;;;;;;;43.80;11.73;;;;;;;10.90;100.00;101435.09;5430974;26;20004;-73
2024/04/13 08:53:39;;;;;;;39.65;10.95;;;;;;;10.38;100.00;101384.84;5389442;26;19995;-73
2024/04/13 08:56:05;;;;;;;45.83;12.23;;;;;;;10.77;100.00;101454.59;5419973;26;20322;-73
2024/04/13 08:58:34;;;;;;;37.03;10.57;;;;;;;10.88;100.00;101459.50;5387303;26;20413;-73
2024/04/13 09:01:01;;;;;;;39.72;10.88;;;;;;;10.89;100.00;101454.94;5418531;26;19992;-73
2024/04/13 09:03:27;;;;;;;36.00;10.60;;;;;;;10.74;100.00;101415.41;5417977;26;20327;-73
2024/04/13 09:05:54;;;;;;;46.38;10.93;;;;;;;10.98;100.00;101443.06;5387410;26;19992;-73
2024/04/13 09:08:23;;;;;;;42.20;10.32;;;;;;;11.05;100.00;101436.75;5423906;26;20361;-73
2024/04/13 09:10:51;;;;;;;45.53;10.65;;;;;;;11.17;100.00;101442.50;5390957;26;19991;-71
2024/04/13 09:13:17;;;;;;;41.95;10.85;;;;;;;11.06;100.00;101426.84;5423824;26;20068;-72
2024/04/13 09:15:44;;;;;;;45.05;10.50;;;;;;;11.05;100.00;101433.22;5391221;26;19996;-72
2024/04/13 09:18:10;;;;;;;48.67;10.20;;;;;;;10.98;100.00;101402.69;5394366;26;20368;-73
2024/04/13 09:20:36;;;;;;;42.08;10.32;;;;;;;11.26;100.00;101432.47;5421247;26;20500;-71
2024/04/13 09:23:01;;;;;;;41.83;9.75;;;;;;;11.34;100.00;101426.13;5361484;26;20068;-71
2024/04/13 09:25:27;;;;;;;47.60;10.27;;;;;;;11.41;100.00;101427.88;5390429;26;20400;-71
2024/04/13 09:28:03;;;;;;;53.20;10.50;;;;;;;11.55;100.00;101439.63;5391392;26;20003;-71
2024/04/13 09:30:28;;;;;;;44.35;9.32;;;;;;;11.70;100.00;101431.53;5422544;26;19992;-71
2024/04/13 09:33:00;;;;;;;45.47;8.88;;;;;;;11.61;100.00;101433.50;5392915;26;20014;-73
2024/04/13 09:35:26;;;;;;;35.85;9.10;;;;;;;11.48;100.00;101420.69;5391627;26;19999;-71
2024/04/13 09:37:56;;;;;;;36.22;8.57;;;;;;;11.62;100.00;101437.88;5422520;26;20338;-71
2024/04/13 09:40:21;;;;;;;49.35;10.38;;;;;;;11.58;100.00;101439.25;5420071;26;20000;-71
2024/04/13 09:42:50;;;;;;;41.83;8.10;;;;;;;11.62;100.00;101442.41;5392378;26;20220;-72
2024/04/13 09:45:16;;;;;;;37.30;8.60;;;;;;;11.42;100.00;101410.69;5421557;26;20015;-73
2024/04/13 09:47:41;;;;;;;41.40;7.93;;;;;;;11.58;100.00;101427.66;5421305;26;19995;-74
2024/04/13 09:50:07;;;;;;;35.63;7.35;;;;;;;11.66;100.00;101432.94;5424353;26;19992;-75
2024/04/13 09:52:33;;;;;;;36.67;7.35;;;;;;;11.70;100.00;101428.81;5425834;26;20012;-73
2024/04/13 09:55:00;;;;;;;34.97;7.32;;;;;;;11.69;100.00;101419.91;5424467;26;20420;-73
2024/04/13 09:57:26;;;;;;;37.15;8.40;;;;;;;11.70;100.00;101426.13;5361763;26;20014;-73
2024/04/13 09:59:52;;;;;;;37.67;7.78;;;;;;;11.65;100.00;101426.69;5421308;26;20448;-74
2024/04/13 10:02:18;;;;;;;34.83;7.90;;;;;;;11.63;100.00;101430.63;5389581;26;20000;-73
2024/04/13 10:04:44;;;;;;;41.67;8.30;;;;;;;11.58;100.00;101423.09;5388839;26;20011;-74
2024/04/13 10:07:13;;;;;;;33.75;7.05;;;;;;;11.47;100.00;101400.16;5360088;26;19999;-73
2024/04/13 10:09:59;;;;;;;27.98;6.60;;;;;;;11.21;100.00;101343.28;5421173;26;20822;-73
2024/04/13 10:12:29;;;;;;;36.08;7.00;;;;;;;11.69;100.00;101408.28;5421485;26;19992;-72
2024/04/13 10:14:58;;;;;;;34.55;7.45;;;;;;;11.71;100.00;101409.75;5421288;26;19991;-73
2024/04/13 10:17:25;;;;;;;33.40;6.95;;;;;;;11.45;100.00;101371.72;5420026;26;20521;-73
2024/04/13 10:19:50;;;;;;;41.67;7.63;;;;;;;11.68;100.00;101417.38;5422156;26;20023;-72
2024/04/13 10:22:18;;;;;;;29.70;6.32;;;;;;;11.71;100.00;101412.44;5423588;26;20026;-73
2024/04/13 10:24:45;;;;;;;34.47;7.13;;;;;;;11.56;100.00;101382.03;5363833;26;20060;-73
2024/04/13 10:27:12;;;;;;;35.45;6.60;;;;;;;11.84;100.00;101394.72;5341337;26;20407;-73
2024/04/13 10:29:44;;;;;;;36.70;6.70;;;;;;;11.87;100.00;101400.59;5390598;26;20010;-73
2024/04/13 10:32:20;;;;;;;37.58;6.68;;;;;;;11.71;100.00;101363.91;5367623;26;19993;-73
2024/04/13 10:34:46;;;;;;;27.67;6.00;;;;;;;12.01;100.00;101411.53;5378136;26;20021;-74
2024/04/13 10:37:30;;;;;;;32.75;6.50;;;;;;;11.88;100.00;101420.31;5351070;26;20316;-73
2024/04/13 10:39:57;;;;;;;36.05;6.32;;;;;;;11.84;100.00;101422.56;5449857;26;20002;-72
2024/04/13 10:42:40;;;;;;;34.00;7.55;;;;;;;11.23;100.00;101357.41;5428642;26;19995;-73
2024/04/13 10:45:12;;;;;;;30.38;6.10;;;;;;;11.65;100.00;101423.97;5429454;26;20393;-73
2024/04/13 10:47:39;;;;;;;37.10;7.30;;;;;;;11.64;100.00;101413.41;5429954;26;19995;-75
2024/04/13 10:50:09;;;;;;;32.67;5.72;;;;;;;11.55;100.00;101399.22;5427354;26;19995;-73
2024/04/13 10:52:35;;;;;;;36.53;6.72;;;;;;;11.43;100.00;101392.66;5396643;26;19992;-74
2024/04/13 10:55:00;;;;;;;39.95;7.45;;;;;;;11.56;100.00;101408.97;5396208;26;19992;-73
2024/04/13 10:57:26;;;;;;;28.50;6.18;;;;;;;11.62;100.00;101405.53;5394070;26;20080;-73
2024/04/13 10:59:53;;;;;;;37.97;7.05;;;;;;;11.52;100.00;101375.31;5453643;26;20078;-72
2024/04/13 11:02:18;;;;;;;31.63;6.70;;;;;;;11.77;100.00;101408.97;5393735;26;20449;-75
2024/04/13 11:04:44;;;;;;;37.35;6.95;;;;;;;11.83;100.00;101395.78;5392365;26;20007;-74